createdAt,value
2022-11-10T00:00:25.089Z,101513.44
2022-11-10T00:02:52.731Z,101518.75
2022-11-10T00:05:20.404Z,101524.09
2022-11-10T00:07:48.230Z,101526.78
2022-11-10T00:10:16.428Z,101527.69
2022-11-10T00:12:45.507Z,101525.03
2022-11-10T00:15:30.762Z,101525.91
2022-11-10T00:17:58.452Z,101526.78
2022-11-10T00:20:26.048Z,101528.59
2022-11-10T00:22:56.585Z,101542.84
2022-11-10T00:25:24.344Z,101532.13
2022-11-10T00:27:53.365Z,101543.72
2022-11-10T00:30:21.025Z,101533.94
2022-11-10T00:32:49.120Z,101543.72
2022-11-10T00:35:16.876Z,101542.84
2022-11-10T00:37:44.570Z,101554.41
2022-11-10T00:40:12.920Z,101562.44
2022-11-10T00:42:42.644Z,101560.63
2022-11-10T00:45:11.971Z,101561.56
2022-11-10T00:47:39.605Z,101561.53
2022-11-10T00:50:08.480Z,101560.63
2022-11-10T00:52:36.103Z,101554.41
2022-11-10T00:55:03.848Z,101566.00
2022-11-10T00:57:31.465Z,101566.91
2022-11-10T00:59:59.128Z,101568.66
2022-11-10T01:02:29.287Z,101565.09
2022-11-10T01:04:56.926Z,101572.22
2022-11-10T01:07:24.568Z,101564.19
2022-11-10T01:09:52.221Z,101574.00
2022-11-10T01:12:19.889Z,101569.53
2022-11-10T01:14:48.766Z,101574.88
2022-11-10T01:17:16.412Z,101578.44
2022-11-10T01:19:45.405Z,101589.13
2022-11-10T01:22:13.038Z,101590.91
2022-11-10T01:24:40.653Z,101591.81
2022-11-10T01:27:08.322Z,101596.28
2022-11-10T01:29:35.979Z,101599.81
2022-11-10T01:32:03.716Z,101591.78
2022-11-10T01:34:31.376Z,101596.25
2022-11-10T01:37:00.424Z,101598.03
2022-11-10T01:39:28.084Z,101603.38
2022-11-10T01:41:55.739Z,101609.63
2022-11-10T01:44:25.843Z,101610.50
2022-11-10T01:46:53.490Z,101619.41
2022-11-10T01:49:25.597Z,101623.00
2022-11-10T01:51:57.034Z,101622.06
2022-11-10T01:54:29.100Z,101620.28
2022-11-10T01:57:01.650Z,101619.41
2022-11-10T01:59:31.212Z,101622.94
2022-11-10T02:02:04.538Z,101631.88
2022-11-10T02:04:32.473Z,101631.84
2022-11-10T02:07:00.458Z,101625.59
2022-11-10T02:09:29.518Z,101628.28
2022-11-10T02:11:57.730Z,101635.41
2022-11-10T02:14:25.451Z,101644.31
2022-11-10T02:16:53.214Z,101643.44
2022-11-10T02:19:23.230Z,101651.41
2022-11-10T02:21:52.304Z,101647.84
2022-11-10T02:24:20.281Z,101641.63
2022-11-10T02:26:51.862Z,101646.97
2022-11-10T02:29:19.558Z,101646.06
2022-11-10T02:31:47.557Z,101651.41
2022-11-10T02:34:15.221Z,101645.16
2022-11-10T02:36:42.973Z,101653.19
2022-11-10T02:39:12.067Z,101645.16
2022-11-10T02:41:39.736Z,101649.63
2022-11-10T02:44:08.654Z,101646.97
2022-11-10T02:46:37.491Z,101646.06
2022-11-10T02:49:05.711Z,101661.22
2022-11-10T02:51:33.350Z,101667.44
2022-11-10T02:54:01.079Z,101671.03
2022-11-10T02:56:30.234Z,101678.13
2022-11-10T02:59:00.120Z,101673.69
2022-11-10T03:01:27.871Z,101668.34
2022-11-10T03:03:55.634Z,101661.22
2022-11-10T03:06:23.296Z,101671.00
2022-11-10T03:08:50.970Z,101668.34
2022-11-10T03:11:18.623Z,101663.00
2022-11-10T03:14:01.057Z,101656.75
2022-11-10T03:16:29.868Z,101668.34
2022-11-10T03:18:57.562Z,101679.06
2022-11-10T03:21:25.201Z,101679.06
2022-11-10T03:23:52.839Z,101667.50
2022-11-10T03:26:20.550Z,101670.16
2022-11-10T03:28:49.565Z,101673.72
2022-11-10T03:31:17.289Z,101696.03
2022-11-10T03:33:44.966Z,101699.56
2022-11-10T03:36:13.641Z,101712.94
2022-11-10T03:38:41.297Z,101717.38
2022-11-10T03:41:24.370Z,101722.69
2022-11-10T03:43:53.411Z,101730.69
2022-11-10T03:46:21.060Z,101730.69
2022-11-10T03:48:53.319Z,101729.81
2022-11-10T03:51:22.019Z,101736.03
2022-11-10T03:53:49.836Z,101739.56
2022-11-10T03:56:17.681Z,101751.13
2022-11-10T03:58:47.454Z,101746.69
2022-11-10T04:01:16.606Z,101745.78
2022-11-10T04:03:48.815Z,101752.91
2022-11-10T04:06:36.578Z,101755.56
2022-11-10T04:09:05.734Z,101765.34
2022-11-10T04:11:50.795Z,101770.66
2022-11-10T04:14:36.231Z,101760.84
2022-11-10T04:17:05.506Z,101780.44
2022-11-10T04:19:33.452Z,101779.53
2022-11-10T04:22:01.138Z,101773.31
2022-11-10T04:24:28.846Z,101779.53
2022-11-10T04:26:56.555Z,101783.13
2022-11-10T04:29:24.308Z,101786.66
2022-11-10T04:31:51.965Z,101784.88
2022-11-10T04:34:21.010Z,101791.06
2022-11-10T04:36:48.643Z,101800.00
2022-11-10T04:39:16.286Z,101803.56
2022-11-10T04:41:43.914Z,101816.03
2022-11-10T04:44:11.616Z,101821.38
2022-11-10T04:46:41.016Z,101809.78
2022-11-10T04:49:08.871Z,101812.44
2022-11-10T04:51:39.528Z,101817.75
2022-11-10T04:54:09.083Z,101830.25
2022-11-10T04:56:37.165Z,101833.78
2022-11-10T04:59:04.835Z,101837.31
2022-11-10T05:01:32.678Z,101831.06
2022-11-10T05:04:01.122Z,101838.13
2022-11-10T05:06:29.038Z,101847.97
2022-11-10T05:08:58.169Z,101846.13
2022-11-10T05:11:25.835Z,101851.47
2022-11-10T05:13:53.500Z,101859.47
2022-11-10T05:16:21.302Z,101857.72
2022-11-10T05:18:53.965Z,101867.47
2022-11-10T05:21:22.498Z,101872.81
2022-11-10T05:23:50.184Z,101871.06
2022-11-10T05:26:19.615Z,101876.41
2022-11-10T05:28:47.533Z,101879.94
2022-11-10T05:31:15.174Z,101878.16
2022-11-10T05:33:42.884Z,101879.06
2022-11-10T05:36:11.906Z,101886.16
2022-11-10T05:38:43.550Z,101882.63
2022-11-10T05:41:11.841Z,101879.91
2022-11-10T05:43:40.938Z,101890.59
2022-11-10T05:46:08.660Z,101896.78
2022-11-10T05:48:36.379Z,101896.78
2022-11-10T05:51:04.202Z,101886.97
2022-11-10T05:53:31.866Z,101886.06
2022-11-10T05:55:59.564Z,101888.75
2022-11-10T05:58:27.267Z,101886.94
2022-11-10T06:00:56.391Z,101889.63
2022-11-10T06:03:24.495Z,101900.31
2022-11-10T06:05:53.312Z,101894.94
2022-11-10T06:08:21.021Z,101898.50
2022-11-10T06:10:48.714Z,101899.44
2022-11-10T06:13:16.389Z,101897.63
2022-11-10T06:15:50.043Z,101901.25
2022-11-10T06:18:19.766Z,101911.00
2022-11-10T06:20:48.112Z,101918.13
2022-11-10T06:23:16.458Z,101921.69
2022-11-10T06:25:45.625Z,101923.50
2022-11-10T06:28:14.781Z,101932.41
2022-11-10T06:30:42.631Z,101935.97
2022-11-10T06:33:10.534Z,101939.53
2022-11-10T06:35:39.589Z,101950.19
2022-11-10T06:38:10.196Z,101953.72
2022-11-10T06:40:37.861Z,101953.75
2022-11-10T06:43:05.622Z,101961.75
2022-11-10T06:45:33.309Z,101967.09
2022-11-10T06:48:02.488Z,101961.75
2022-11-10T06:50:30.462Z,101960.00
2022-11-10T06:53:00.732Z,101973.38
2022-11-10T06:55:28.840Z,101976.03
2022-11-10T06:57:56.528Z,101981.38
2022-11-10T07:00:24.984Z,101988.50
2022-11-10T07:03:00.217Z,101991.19
2022-11-10T07:05:27.924Z,102002.78
2022-11-10T07:07:55.584Z,101993.03
2022-11-10T07:10:24.655Z,102003.72
2022-11-10T07:12:57.423Z,102013.50
2022-11-10T07:15:25.379Z,102017.94
2022-11-10T07:17:53.071Z,102022.41
2022-11-10T07:20:21.464Z,102034.00
2022-11-10T07:22:49.318Z,102034.03
2022-11-10T07:25:17.139Z,102038.56
2022-11-10T07:27:46.258Z,102035.91
2022-11-10T07:30:14.730Z,102034.97
2022-11-10T07:32:42.368Z,102043.06
2022-11-10T07:35:10.327Z,102041.31
2022-11-10T07:37:38.011Z,102033.38
2022-11-10T07:40:06.585Z,102039.69
2022-11-10T07:42:40.396Z,102055.72
2022-11-10T07:45:10.520Z,102053.06
2022-11-10T07:47:38.243Z,102060.25
2022-11-10T07:50:06.740Z,102062.09
2022-11-10T07:52:34.727Z,102063.00
2022-11-10T07:55:02.452Z,102073.81
2022-11-10T07:57:30.200Z,102071.13
2022-11-10T07:59:58.285Z,102085.38
2022-11-10T08:02:27.506Z,102089.88
2022-11-10T08:04:55.156Z,102098.81
2022-11-10T08:07:22.925Z,102101.56
2022-11-10T08:09:51.317Z,102101.56
2022-11-10T08:12:19.031Z,102100.72
2022-11-10T08:14:46.697Z,102113.19
2022-11-10T08:17:14.464Z,102111.44
2022-11-10T08:24:58.480Z,102112.44
2022-11-10T08:27:26.170Z,102114.25
2022-11-10T08:29:53.997Z,102117.84
2022-11-10T08:32:22.212Z,102119.69
2022-11-10T08:34:49.885Z,102125.97
2022-11-10T08:37:17.596Z,102129.56
2022-11-10T08:39:45.304Z,102140.28
2022-11-10T08:42:14.363Z,102128.75
2022-11-10T08:44:41.980Z,102134.16
2022-11-10T08:47:09.642Z,102131.50
2022-11-10T08:49:37.342Z,102138.69
2022-11-10T08:52:05.397Z,102142.31
2022-11-10T08:54:33.066Z,102146.81
2022-11-10T08:57:00.718Z,102136.13
2022-11-10T08:59:30.026Z,102136.16
2022-11-10T09:01:58.807Z,102137.13
2022-11-10T09:04:26.600Z,102136.28
2022-11-10T09:06:57.658Z,102137.22
2022-11-10T09:09:25.922Z,102134.53
2022-11-10T09:11:53.674Z,102143.53
2022-11-10T09:14:21.557Z,102150.69
2022-11-10T09:16:50.608Z,102143.59
2022-11-10T09:19:20.095Z,102144.53
2022-11-10T09:21:48.097Z,102150.84
2022-11-10T09:24:15.898Z,102151.75
2022-11-10T09:26:47.508Z,102154.44
2022-11-10T09:29:15.394Z,102154.50
2022-11-10T09:31:44.618Z,102168.84
2022-11-10T09:34:14.012Z,102167.09
2022-11-10T09:36:41.689Z,102173.41
2022-11-10T09:39:09.545Z,102181.47
2022-11-10T09:41:41.035Z,102176.13
2022-11-10T09:44:14.794Z,102185.97
2022-11-10T09:46:46.083Z,102186.00
2022-11-10T09:49:29.166Z,102186.94
2022-11-10T09:52:00.045Z,102203.03
2022-11-10T09:54:38.309Z,102204.84
2022-11-10T09:57:08.729Z,102199.50
2022-11-10T09:59:37.618Z,102198.63
2022-11-10T10:02:13.310Z,102204.03
2022-11-10T10:04:59.750Z,102208.50
2022-11-10T10:07:35.392Z,102206.75
2022-11-10T10:10:17.139Z,102204.06
2022-11-10T10:13:00.985Z,102213.06
2022-11-10T10:15:38.495Z,102208.59
2022-11-10T10:18:24.453Z,102208.63
2022-11-10T10:21:15.318Z,102200.59
2022-11-10T10:26:40.850Z,102196.16
2022-11-10T10:29:11.365Z,102193.50
2022-11-10T10:31:43.418Z,102198.88
2022-11-10T10:34:15.190Z,102194.44
2022-11-10T10:36:45.432Z,102194.44
2022-11-10T10:39:16.890Z,102195.34
2022-11-10T10:41:46.353Z,102191.78
2022-11-10T10:44:16.779Z,102194.47
2022-11-10T10:46:48.403Z,102189.97
2022-11-10T10:49:29.098Z,102209.69
2022-11-10T10:52:13.066Z,102213.28
2022-11-10T10:54:41.306Z,102210.59
2022-11-10T10:57:22.510Z,102214.16
2022-11-10T10:59:51.053Z,102224.03
2022-11-10T11:02:37.508Z,102225.81
2022-11-10T11:05:13.544Z,102227.59
2022-11-10T11:07:43.374Z,102244.66
2022-11-10T11:10:22.025Z,102234.78
2022-11-10T11:12:49.792Z,102237.44
2022-11-10T11:15:26.435Z,102247.31
2022-11-10T11:17:59.055Z,102241.94
2022-11-10T11:20:34.241Z,102256.28
2022-11-10T11:23:13.650Z,102245.53
2022-11-10T11:25:44.853Z,102246.44
2022-11-10T11:28:21.851Z,102250.03
2022-11-10T11:31:02.337Z,102244.63
2022-11-10T11:33:36.845Z,102252.66
2022-11-10T11:36:15.563Z,102249.09
2022-11-10T11:38:55.307Z,102249.09
2022-11-10T11:41:36.920Z,102261.63
2022-11-10T11:44:24.513Z,102259.84
2022-11-10T11:47:03.248Z,102264.31
2022-11-10T11:49:52.831Z,102268.81
2022-11-10T11:52:30.919Z,102263.44
2022-11-10T11:55:12.925Z,102263.44
2022-11-10T11:57:53.891Z,102262.53
2022-11-10T12:00:22.750Z,102268.81
2022-11-10T12:03:20.384Z,102260.72
2022-11-10T12:05:57.921Z,102262.53
2022-11-10T12:08:36.516Z,102257.13
2022-11-10T12:11:19.748Z,102273.22
2022-11-10T12:13:59.113Z,102279.50
2022-11-10T12:16:30.066Z,102273.25
2022-11-10T12:19:09.088Z,102275.03
2022-11-10T12:21:46.871Z,102280.34
2022-11-10T12:24:35.918Z,102287.53
2022-11-10T12:27:15.553Z,102288.44
2022-11-10T12:29:47.057Z,102290.22
2022-11-10T12:32:20.345Z,102283.94
2022-11-10T12:34:51.591Z,102290.25
2022-11-10T12:37:28.025Z,102295.63
2022-11-10T12:40:03.036Z,102297.41
2022-11-10T12:42:33.958Z,102294.72
2022-11-10T12:45:03.477Z,102299.16
2022-11-10T12:47:37.932Z,102302.75
2022-11-10T12:50:21.753Z,102303.66
2022-11-10T12:52:54.966Z,102309.03
2022-11-10T12:55:31.485Z,102298.28
2022-11-10T12:58:01.637Z,102297.38
2022-11-10T13:00:32.569Z,102300.94
2022-11-10T13:03:00.778Z,102306.31
2022-11-10T13:05:40.907Z,102303.63
2022-11-10T13:08:27.179Z,102309.00
2022-11-10T13:10:57.602Z,102296.38
2022-11-10T13:13:27.732Z,102294.59
2022-11-10T13:15:58.184Z,102294.56
2022-11-10T13:18:53.623Z,102303.50
2022-11-10T13:21:57.926Z,102307.06
2022-11-10T13:24:27.433Z,102310.69
2022-11-10T13:26:56.501Z,102303.53
2022-11-10T13:29:36.211Z,102316.97
2022-11-10T13:32:26.815Z,102318.78
2022-11-10T13:34:55.412Z,102313.38
2022-11-10T13:37:50.687Z,102317.00
2022-11-10T13:40:29.581Z,102311.63
2022-11-10T13:43:23.970Z,102309.81
2022-11-10T13:46:04.197Z,102317.91
2022-11-10T13:48:44.187Z,102314.34
2022-11-10T13:51:26.360Z,102318.78
2022-11-10T13:54:11.286Z,102316.09
2022-11-10T13:57:08.840Z,102318.81
2022-11-10T13:59:50.311Z,102312.47
2022-11-10T14:03:02.085Z,102318.78
2022-11-10T14:13:52.915Z,102297.31
2022-11-10T14:16:47.272Z,102297.31
2022-11-10T14:38:30.461Z,102306.41
2022-11-10T14:41:02.652Z,102305.50
2022-11-10T14:43:36.258Z,102310.88
2022-11-10T14:46:06.896Z,102320.75
2022-11-10T14:48:44.192Z,102319.88
2022-11-10T14:51:20.596Z,102320.75
2022-11-10T14:53:57.077Z,102319.88
2022-11-10T14:56:29.636Z,102332.44
2022-11-10T14:59:13.051Z,102336.03
2022-11-10T15:04:43.949Z,102348.59
2022-11-10T15:07:17.475Z,102345.91
2022-11-10T15:10:16.437Z,102353.09
2022-11-10T15:12:53.713Z,102347.72
2022-11-10T15:15:24.796Z,102345.91
2022-11-10T15:17:55.927Z,102345.03
2022-11-10T15:20:39.579Z,102353.09
2022-11-10T15:26:24.816Z,102354.88
2022-11-10T15:28:56.707Z,102338.75
2022-11-10T15:31:31.589Z,102342.34
2022-11-10T15:34:06.412Z,102330.69
2022-11-10T15:36:42.508Z,102323.50
2022-11-10T15:39:20.310Z,102334.28
2022-11-10T15:41:52.145Z,102330.69
2022-11-10T15:44:33.684Z,102350.38
2022-11-10T15:47:03.095Z,102353.06
2022-11-10T15:49:38.256Z,102362.94
2022-11-10T15:52:34.642Z,102367.41
2022-11-10T15:55:05.025Z,102365.63
2022-11-10T15:57:35.465Z,102371.91
2022-11-10T16:00:12.347Z,102370.09
2022-11-10T16:02:43.159Z,102375.47
2022-11-10T16:05:13.112Z,102384.44
2022-11-10T16:07:53.493Z,102391.59
2022-11-10T16:10:24.897Z,102395.16
2022-11-10T16:12:53.089Z,102404.13
2022-11-10T16:15:24.418Z,102407.72
2022-11-10T16:17:54.184Z,102421.16
2022-11-10T16:20:24.900Z,102413.06
2022-11-10T16:22:55.635Z,102409.47
2022-11-10T16:29:22.818Z,102401.41
2022-11-10T16:31:54.199Z,102396.91
2022-11-10T16:34:24.002Z,102402.28
2022-11-10T16:37:19.012Z,102408.53
2022-11-10T16:40:10.343Z,102415.72
2022-11-10T16:42:42.514Z,102413.03
2022-11-10T16:45:20.802Z,102405.84
2022-11-10T16:48:08.995Z,102421.97
2022-11-10T16:50:40.892Z,102424.66
2022-11-10T16:53:21.736Z,102424.66
2022-11-10T16:56:01.421Z,102421.97
2022-11-10T16:58:44.745Z,102429.13
2022-11-10T17:01:23.640Z,102431.78
2022-11-10T17:04:51.952Z,102431.78
2022-11-10T17:07:27.327Z,102438.97
2022-11-10T17:10:23.911Z,102438.09
2022-11-10T17:13:20.384Z,102438.09
2022-11-10T17:15:54.253Z,102437.16
2022-11-10T17:19:43.196Z,102450.59
2022-11-10T17:22:05.170Z,102446.09
2022-11-10T17:24:49.566Z,102456.81
2022-11-10T17:27:38.027Z,102468.50
2022-11-10T17:30:20.939Z,102467.59
2022-11-10T17:33:06.147Z,102466.69
2022-11-10T17:35:47.553Z,102480.09
2022-11-10T17:38:29.688Z,102483.69
2022-11-10T17:41:01.569Z,102486.38
2022-11-10T17:43:45.284Z,102497.13
2022-11-10T17:46:14.862Z,102493.47
2022-11-10T17:48:50.799Z,102499.75
2022-11-10T17:51:35.042Z,102506.00
2022-11-10T17:54:09.493Z,102495.25
2022-11-10T17:57:07.103Z,102491.66
2022-11-10T17:59:51.913Z,102495.25
2022-11-10T18:02:35.978Z,102495.25
2022-11-10T18:05:44.823Z,102493.47
2022-11-10T18:09:50.824Z,102491.66
2022-11-10T18:12:21.789Z,102504.16
2022-11-10T18:15:07.406Z,102495.16
2022-11-10T18:17:51.480Z,102493.34
2022-11-10T18:20:27.343Z,102487.00
2022-11-10T18:22:57.397Z,102488.78
2022-11-10T18:29:14.393Z,102503.09
2022-11-10T18:32:15.240Z,102506.59
2022-11-10T18:35:12.160Z,102516.44
2022-11-10T18:38:03.757Z,102505.69
2022-11-10T18:40:40.959Z,102511.94
2022-11-10T18:43:19.147Z,102517.28
2022-11-10T18:46:05.830Z,102529.84
2022-11-10T18:48:49.381Z,102544.13
2022-11-10T18:51:38.236Z,102547.66
2022-11-10T18:57:09.079Z,102534.16
2022-11-10T18:59:45.126Z,102541.28
2022-11-10T19:02:44.902Z,102534.09
2022-11-10T19:05:44.567Z,102530.53
2022-11-10T19:08:22.213Z,102530.56
2022-11-10T19:11:03.253Z,102522.53
2022-11-10T19:16:37.360Z,102535.94
2022-11-10T19:19:17.623Z,102535.97
2022-11-10T19:21:52.993Z,102529.72
2022-11-10T19:24:42.485Z,102530.59
2022-11-10T19:27:31.706Z,102527.03
2022-11-10T19:30:08.754Z,102521.63
2022-11-10T19:35:28.857Z,102512.69
2022-11-10T19:38:05.932Z,102511.75
2022-11-10T19:40:39.972Z,102513.56
2022-11-10T19:43:21.288Z,102510.91
2022-11-10T19:46:12.991Z,102512.69
2022-11-10T19:48:44.723Z,102513.50
2022-11-10T19:51:18.154Z,102518.94
2022-11-10T19:53:53.034Z,102527.84
2022-11-10T19:56:30.543Z,102534.97
2022-11-10T19:59:08.657Z,102538.59
2022-11-10T20:01:43.717Z,102539.41
2022-11-10T20:04:18.550Z,102540.25
2022-11-10T20:07:43.718Z,102529.50
2022-11-10T20:10:16.663Z,102534.75
2022-11-10T20:12:47.487Z,102551.75
2022-11-10T20:15:19.570Z,102546.34
2022-11-10T20:17:49.890Z,102543.66
2022-11-10T20:20:24.289Z,102535.56
2022-11-10T20:22:55.866Z,102545.41
2022-11-10T20:25:25.515Z,102533.72
2022-11-10T20:27:54.254Z,102540.91
2022-11-10T20:31:12.546Z,102548.03
2022-11-10T20:33:42.619Z,102564.97
2022-11-10T20:36:20.335Z,102577.44
2022-11-10T20:38:54.729Z,102568.50
2022-11-10T20:41:28.831Z,102567.56
2022-11-10T20:44:07.358Z,102576.53
2022-11-10T20:46:58.369Z,102580.16
2022-11-10T20:49:29.513Z,102574.75
2022-11-10T20:52:07.425Z,102576.53
2022-11-10T20:54:37.435Z,102579.22
2022-11-10T20:57:10.798Z,102586.41
2022-11-10T20:59:43.307Z,102577.41
2022-11-10T21:02:15.398Z,102583.72
2022-11-10T21:04:55.221Z,102588.13
2022-11-10T21:07:30.965Z,102594.31
2022-11-10T21:10:04.732Z,102593.31
2022-11-10T21:12:49.986Z,102580.88
2022-11-10T21:15:19.015Z,102589.75
2022-11-10T21:17:50.575Z,102588.84
2022-11-10T21:20:27.987Z,102593.28
2022-11-10T21:23:03.623Z,102603.09
2022-11-10T21:25:36.424Z,102609.28
2022-11-10T21:28:36.031Z,102598.56
2022-11-10T21:31:05.393Z,102604.81
2022-11-10T21:33:37.296Z,102595.91
2022-11-10T21:37:53.040Z,102597.69
2022-11-10T21:39:44.148Z,102597.59
2022-11-10T21:42:27.849Z,102607.47
2022-11-10T21:45:24.969Z,102608.28
2022-11-10T21:48:29.097Z,102610.06
2022-11-10T21:51:26.022Z,102604.66
2022-11-10T21:53:58.133Z,102605.47
2022-11-10T21:56:34.063Z,102598.25
2022-11-10T21:59:20.612Z,102599.13
2022-11-10T22:09:06.135Z,102610.63
2022-11-10T22:11:56.198Z,102615.94
2022-11-10T22:14:51.870Z,102612.34
2022-11-10T22:24:25.676Z,102609.56
2022-11-10T22:27:42.131Z,102619.34
2022-11-10T23:13:33.702Z,102651.13
2022-11-10T23:21:36.603Z,102656.25
2022-11-10T23:25:07.148Z,102650.88
2022-11-10T23:57:40.573Z,102706.56
